Time;durP1;ratioP1;P1;durP2;ratioP2;P2;SDS_P1;SDS_P2;PMS_P1;PMS_P2;Temp;Humidity;BMP_temperature;BMP_pressure;BME280_temperature;BME280_humidity;BME280_pressure;Samples;Min_cycle;Max_cycle;Signal;HPM_P1;HPM_P2
2024/01/14 00:00:51;;;;;;;15.88;6.45;;;2.10;99.90;;;;;;6098654;23;20014;-76
2024/01/14 00:03:16;;;;;;;21.50;5.45;;;2.20;99.90;;;;;;6097844;23;20335;-76
2024/01/14 00:05:42;;;;;;;25.85;6.63;;;2.30;99.90;;;;;;6100013;23;20014;-77
2024/01/14 00:08:07;;;;;;;20.52;5.97;;;2.40;99.90;;;;;;6100254;23;20022;-77
2024/01/14 00:10:33;;;;;;;20.50;5.30;;;2.50;99.90;;;;;;6100161;23;20080;-77
2024/01/14 00:12:59;;;;;;;18.23;3.92;;;2.60;99.90;;;;;;6075690;23;20028;-77
2024/01/14 00:15:24;;;;;;;20.80;5.03;;;2.70;99.90;;;;;;6099286;23;20049;-77
2024/01/14 00:17:50;;;;;;;18.58;4.10;;;2.70;99.90;;;;;;6099319;23;20010;-77
2024/01/14 00:20:16;;;;;;;17.30;4.60;;;2.80;99.90;;;;;;6076093;23;20016;-77
2024/01/14 00:22:41;;;;;;;16.48;3.92;;;2.80;99.90;;;;;;6075413;23;20350;-77
2024/01/14 00:25:08;;;;;;;16.85;4.15;;;2.90;99.90;;;;;;6084199;23;20093;-77
2024/01/14 00:27:33;;;;;;;22.35;4.13;;;2.90;99.90;;;;;;6100158;23;20014;-77
2024/01/14 00:30:00;;;;;;;17.65;3.38;;;3.00;99.90;;;;;;6100333;23;20026;-77
2024/01/14 00:32:25;;;;;;;15.98;4.00;;;3.00;99.90;;;;;;6099907;23;20018;-77
2024/01/14 00:34:51;;;;;;;16.63;4.28;;;3.10;99.90;;;;;;6099516;23;20045;-77
2024/01/14 00:37:16;;;;;;;17.65;3.72;;;3.00;99.90;;;;;;6124810;23;20010;-77
2024/01/14 00:39:42;;;;;;;19.50;3.95;;;3.00;99.90;;;;;;6124362;23;20006;-77
2024/01/14 00:42:08;;;;;;;18.08;4.43;;;3.00;99.90;;;;;;6099646;23;20021;-77
2024/01/14 00:44:33;;;;;;;17.00;3.65;;;3.00;99.90;;;;;;6123877;23;20395;-77
2024/01/14 00:46:59;;;;;;;15.23;3.55;;;3.00;99.90;;;;;;6123988;23;20056;-77
2024/01/14 00:49:25;;;;;;;14.18;3.38;;;3.00;99.90;;;;;;6099837;23;20100;-77
2024/01/14 00:51:50;;;;;;;16.48;3.65;;;2.90;99.90;;;;;;6099914;23;20060;-77
2024/01/14 00:54:16;;;;;;;21.98;4.57;;;2.90;99.90;;;;;;6099233;23;20017;-77
2024/01/14 00:56:43;;;;;;;18.95;4.05;;;2.90;99.90;;;;;;6099968;23;20009;-77
2024/01/14 00:59:09;;;;;;;17.08;3.53;;;2.80;99.90;;;;;;6100048;23;20065;-77
2024/01/14 01:01:34;;;;;;;18.95;4.18;;;2.90;99.90;;;;;;6099685;23;20362;-77
2024/01/14 01:04:00;;;;;;;21.30;4.05;;;2.80;99.90;;;;;;6123490;23;20013;-77
2024/01/14 01:06:25;;;;;;;20.23;4.30;;;2.80;99.90;;;;;;6124172;23;20014;-77
2024/01/14 01:08:51;;;;;;;18.85;3.15;;;2.80;99.90;;;;;;6099920;23;20014;-77
2024/01/14 01:11:17;;;;;;;17.83;3.45;;;2.80;99.90;;;;;;6123824;23;20024;-77
2024/01/14 01:13:42;;;;;;;18.25;3.38;;;2.90;99.90;;;;;;6099143;23;20010;-77
2024/01/14 01:16:08;;;;;;;17.88;3.30;;;2.90;99.90;;;;;;6123808;23;20064;-77
2024/01/14 01:18:34;;;;;;;15.73;3.03;;;2.90;99.90;;;;;;6099789;23;20021;-77
2024/01/14 01:21:00;;;;;;;15.32;3.10;;;2.90;99.90;;;;;;6099766;23;20020;-77
2024/01/14 01:23:25;;;;;;;14.80;2.75;;;3.00;99.90;;;;;;6123219;23;20010;-77
2024/01/14 01:25:51;;;;;;;16.00;2.80;;;3.00;99.90;;;;;;6123447;23;20093;-77
2024/01/14 01:28:17;;;;;;;15.13;3.00;;;3.00;99.90;;;;;;6099669;23;20360;-77
2024/01/14 01:30:43;;;;;;;17.63;3.10;;;3.00;99.90;;;;;;6123952;23;20014;-77
2024/01/14 01:33:08;;;;;;;14.73;2.83;;;3.10;99.90;;;;;;6099202;23;20016;-77
2024/01/14 01:35:34;;;;;;;15.65;2.53;;;3.10;99.90;;;;;;6099157;23;20093;-77
2024/01/14 01:37:59;;;;;;;16.20;3.10;;;3.10;99.90;;;;;;6123879;23;20069;-77
2024/01/14 01:40:25;;;;;;;17.73;2.90;;;3.20;99.90;;;;;;6123977;23;20013;-77
2024/01/14 01:42:51;;;;;;;13.02;2.92;;;3.20;99.90;;;;;;6099292;23;20018;-77
2024/01/14 01:45:17;;;;;;;15.35;2.60;;;3.20;99.90;;;;;;6099020;23;20018;-77
2024/01/14 01:47:43;;;;;;;19.95;3.22;;;3.10;99.90;;;;;;6123857;23;20010;-77
2024/01/14 01:50:09;;;;;;;20.48;3.35;;;3.10;99.90;;;;;;6123850;23;20014;-77
2024/01/14 01:52:37;;;;;;;12.93;2.75;;;3.10;99.90;;;;;;6099016;23;20423;-77
2024/01/14 01:55:05;;;;;;;14.63;3.30;;;3.10;99.90;;;;;;6098904;23;20065;-77
2024/01/14 01:57:33;;;;;;;18.20;3.33;;;3.00;99.90;;;;;;6099242;23;20061;-76
2024/01/14 01:59:59;;;;;;;16.25;3.03;;;3.00;99.90;;;;;;6123822;23;20014;-77
2024/01/14 02:02:25;;;;;;;17.70;3.20;;;3.00;99.90;;;;;;6099096;23;20025;-77
2024/01/14 02:04:51;;;;;;;18.33;3.50;;;3.00;99.90;;;;;;6123241;23;20060;-77
2024/01/14 02:07:20;;;;;;;16.42;3.35;;;2.90;99.90;;;;;;6098997;23;20100;-76
2024/01/14 02:09:45;;;;;;;16.90;3.08;;;2.90;99.90;;;;;;6123696;23;20021;-76
2024/01/14 02:12:11;;;;;;;21.23;3.50;;;2.90;99.90;;;;;;6098979;23;20021;-77
2024/01/14 02:14:37;;;;;;;16.13;3.00;;;2.90;99.90;;;;;;6098696;23;20046;-76
2024/01/14 02:17:02;;;;;;;18.08;3.42;;;2.80;99.90;;;;;;6123328;23;20013;-77
2024/01/14 02:19:28;;;;;;;16.83;3.33;;;2.80;99.90;;;;;;6123412;23;20010;-77
2024/01/14 02:22:22;;;;;;;18.13;3.60;;;2.80;99.90;;;;;;6099072;23;20013;-77
2024/01/14 02:24:48;;;;;;;21.25;4.25;;;2.80;99.90;;;;;;6098494;23;20463;-77
2024/01/14 02:27:14;;;;;;;21.38;3.60;;;2.80;99.90;;;;;;6098816;23;20053;-76
2024/01/14 02:29:40;;;;;;;24.13;3.95;;;2.80;99.90;;;;;;6099108;23;20013;-76
2024/01/14 02:32:06;;;;;;;15.50;3.20;;;2.90;99.90;;;;;;6098871;23;20514;-77
2024/01/14 02:34:32;;;;;;;19.65;3.88;;;2.90;99.90;;;;;;6098060;23;20006;-76
2024/01/14 02:37:00;;;;;;;14.55;2.92;;;3.00;99.90;;;;;;6098831;23;20018;-77
2024/01/14 02:39:26;;;;;;;14.27;2.78;;;3.00;99.90;;;;;;6099027;23;20449;-77
2024/01/14 02:41:51;;;;;;;18.23;3.72;;;3.00;99.90;;;;;;6098927;23;20014;-76
2024/01/14 02:44:17;;;;;;;18.10;3.00;;;3.00;99.90;;;;;;6098308;23;20018;-76
2024/01/14 02:46:42;;;;;;;17.52;3.30;;;3.00;99.90;;;;;;6098869;23;20014;-77
2024/01/14 02:49:08;;;;;;;16.38;3.20;;;3.00;99.90;;;;;;6098929;23;20018;-77
2024/01/14 02:51:33;;;;;;;17.55;2.75;;;3.00;99.90;;;;;;6123130;23;20072;-77
2024/01/14 02:54:01;;;;;;;15.63;3.08;;;2.90;99.90;;;;;;6098221;23;20090;-77
2024/01/14 02:56:27;;;;;;;17.90;3.13;;;2.80;99.90;;;;;;6098630;23;20329;-77
2024/01/14 02:58:52;;;;;;;16.42;2.95;;;2.80;99.90;;;;;;6098893;23;20021;-77
2024/01/14 03:01:18;;;;;;;18.00;2.88;;;2.70;99.90;;;;;;6098704;23;20045;-76
2024/01/14 03:03:44;;;;;;;20.73;3.85;;;2.60;99.90;;;;;;6122533;23;20017;-77
2024/01/14 03:06:09;;;;;;;23.88;3.60;;;2.60;99.90;;;;;;6122876;23;20010;-76
2024/01/14 03:08:35;;;;;;;22.33;3.42;;;2.60;99.90;;;;;;6098818;23;20065;-77
2024/01/14 03:11:00;;;;;;;21.35;3.47;;;2.60;99.90;;;;;;6123111;23;20010;-77
2024/01/14 03:13:28;;;;;;;21.23;3.97;;;2.60;99.90;;;;;;6098416;23;20010;-76
2024/01/14 03:15:53;;;;;;;19.70;3.00;;;2.70;99.90;;;;;;6098564;23;20086;-76
2024/01/14 03:18:19;;;;;;;21.20;3.53;;;2.70;99.90;;;;;;6098907;23;20042;-77
2024/01/14 03:20:44;;;;;;;19.65;3.55;;;2.70;99.90;;;;;;6098807;23;20006;-77
2024/01/14 03:23:10;;;;;;;21.33;3.40;;;2.80;99.90;;;;;;6098124;23;20092;-77
2024/01/14 03:25:35;;;;;;;17.50;2.90;;;2.80;99.90;;;;;;6098245;23;20013;-76
2024/01/14 03:28:01;;;;;;;17.30;2.60;;;2.80;99.90;;;;;;6098642;23;20014;-77
2024/01/14 03:30:26;;;;;;;14.68;3.08;;;2.90;99.90;;;;;;6098708;23;20439;-77
2024/01/14 03:32:52;;;;;;;14.45;2.60;;;2.90;99.90;;;;;;6122428;23;20018;-77
2024/01/14 03:35:18;;;;;;;14.00;2.60;;;3.00;99.90;;;;;;6097847;23;20018;-77
2024/01/14 03:37:44;;;;;;;12.43;2.10;;;3.00;99.90;;;;;;6098550;23;20450;-77
2024/01/14 03:40:10;;;;;;;13.52;2.20;;;3.10;99.90;;;;;;6124216;23;20021;-76
2024/01/14 03:42:36;;;;;;;17.38;2.72;;;3.10;99.90;;;;;;6100185;23;20017;-76
2024/01/14 03:45:02;;;;;;;12.18;2.30;;;3.10;99.90;;;;;;6124580;23;20105;-77
2024/01/14 03:47:28;;;;;;;13.63;2.53;;;3.10;99.90;;;;;;6124857;23;20488;-77
2024/01/14 03:49:53;;;;;;;16.35;2.60;;;3.10;99.90;;;;;;6124744;23;20014;-77
2024/01/14 03:52:19;;;;;;;19.08;3.13;;;3.10;99.90;;;;;;6124586;23;20017;-77
2024/01/14 03:54:44;;;;;;;12.05;2.28;;;3.10;99.90;;;;;;6099816;23;20084;-77
2024/01/14 03:57:10;;;;;;;16.38;2.92;;;3.20;99.90;;;;;;6100518;23;20068;-77
2024/01/14 03:59:37;;;;;;;19.98;2.92;;;3.10;99.90;;;;;;6100595;23;20029;-77
2024/01/14 04:02:03;;;;;;;14.68;2.55;;;3.10;99.90;;;;;;6124807;23;20079;-77
2024/01/14 04:04:28;;;;;;;10.85;2.60;;;3.10;99.90;;;;;;6099725;23;20466;-77
2024/01/14 04:06:54;;;;;;;12.77;2.33;;;3.10;99.90;;;;;;6100373;23;20020;-77
2024/01/14 04:09:19;;;;;;;12.95;2.38;;;3.10;99.90;;;;;;6100416;23;20013;-77
2024/01/14 04:11:45;;;;;;;12.60;2.50;;;3.00;99.90;;;;;;6100292;23;20014;-77
2024/01/14 04:14:11;;;;;;;18.80;2.45;;;3.00;99.90;;;;;;6099790;23;20061;-77
2024/01/14 04:16:40;;;;;;;13.02;2.30;;;3.00;99.90;;;;;;6100210;23;20470;-77
2024/01/14 04:19:06;;;;;;;12.95;2.70;;;3.00;99.90;;;;;;6124802;23;20006;-77
2024/01/14 04:21:32;;;;;;;10.82;2.30;;;2.90;99.90;;;;;;6100162;23;20720;-77
2024/01/14 04:23:59;;;;;;;13.70;2.20;;;2.90;99.90;;;;;;6123841;23;20026;-76
2024/01/14 04:26:25;;;;;;;20.70;2.95;;;2.90;99.90;;;;;;6100158;23;20426;-77
2024/01/14 04:28:51;;;;;;;14.45;2.70;;;2.90;99.90;;;;;;6100134;23;20018;-77
2024/01/14 04:31:17;;;;;;;14.88;2.40;;;2.80;99.90;;;;;;6076025;23;20014;-77
2024/01/14 04:33:43;;;;;;;13.43;2.55;;;2.90;99.90;;;;;;6075636;23;20032;-77
2024/01/14 04:36:09;;;;;;;15.65;2.50;;;2.80;99.90;;;;;;6099807;23;20010;-77
2024/01/14 04:38:35;;;;;;;13.90;2.88;;;2.90;99.90;;;;;;6076229;23;20010;-77
2024/01/14 04:41:01;;;;;;;12.68;2.42;;;2.90;99.90;;;;;;6099980;23;20020;-77
2024/01/14 04:43:26;;;;;;;16.33;2.38;;;2.80;99.90;;;;;;6075256;23;20018;-76
2024/01/14 04:45:52;;;;;;;16.55;2.53;;;2.80;99.90;;;;;;6075888;23;20355;-77
2024/01/14 04:48:17;;;;;;;16.15;3.20;;;2.80;99.90;;;;;;6076056;23;20013;-77
2024/01/14 04:50:43;;;;;;;15.48;3.00;;;2.80;99.90;;;;;;6099591;23;20350;-77
2024/01/14 04:53:08;;;;;;;18.88;2.78;;;2.80;99.90;;;;;;6075344;23;20458;-77
2024/01/14 04:55:34;;;;;;;15.07;2.60;;;2.80;99.90;;;;;;6075560;23;20443;-77
2024/01/14 04:58:00;;;;;;;17.45;3.20;;;2.90;99.90;;;;;;6075560;23;20017;-77
2024/01/14 05:00:26;;;;;;;16.75;3.90;;;2.80;99.90;;;;;;6075801;23;20014;-77
2024/01/14 05:02:52;;;;;;;16.98;3.17;;;2.90;99.90;;;;;;6075521;23;20018;-78
2024/01/14 05:05:17;;;;;;;19.20;2.90;;;2.90;99.90;;;;;;6075587;23;20029;-78
2024/01/14 05:07:43;;;;;;;17.83;2.78;;;2.90;99.90;;;;;;6075746;23;20025;-78
2024/01/14 05:10:09;;;;;;;17.15;3.40;;;2.90;99.90;;;;;;6076102;23;20013;-78
2024/01/14 05:12:35;;;;;;;13.90;3.15;;;3.00;99.90;;;;;;6075420;23;20097;-78
2024/01/14 05:15:00;;;;;;;21.77;3.88;;;2.90;99.90;;;;;;6075648;23;20399;-78
2024/01/14 05:17:26;;;;;;;19.88;4.20;;;2.90;99.90;;;;;;6075725;23;20016;-77
2024/01/14 05:19:52;;;;;;;25.30;4.28;;;3.00;99.90;;;;;;6099567;23;20010;-78
2024/01/14 05:22:18;;;;;;;15.13;4.38;;;3.00;99.90;;;;;;6075642;23;20024;-78
2024/01/14 05:24:44;;;;;;;20.95;4.50;;;2.90;99.90;;;;;;6107569;23;20098;-73
2024/01/14 05:27:13;;;;;;;19.30;4.22;;;2.90;99.90;;;;;;6129178;23;20016;-73
2024/01/14 05:29:45;;;;;;;19.70;4.32;;;3.00;99.90;;;;;;6104268;23;20125;-73
2024/01/14 05:32:13;;;;;;;22.77;4.57;;;3.00;99.90;;;;;;6128368;23;20331;-73
2024/01/14 05:34:39;;;;;;;17.50;3.92;;;2.90;99.90;;;;;;6098564;23;20013;-73
2024/01/14 05:37:05;;;;;;;19.88;3.58;;;2.90;99.90;;;;;;6099208;23;20033;-73
2024/01/14 05:39:32;;;;;;;20.02;3.70;;;2.90;99.90;;;;;;6075288;23;20052;-73
2024/01/14 05:41:58;;;;;;;14.55;2.97;;;2.80;99.90;;;;;;6075073;23;20013;-73
2024/01/14 05:44:24;;;;;;;13.75;3.45;;;2.80;99.90;;;;;;6074864;23;20319;-73
2024/01/14 05:46:50;;;;;;;12.15;3.35;;;2.70;99.90;;;;;;6099485;23;20442;-73
2024/01/14 05:49:15;;;;;;;17.45;3.20;;;2.60;99.90;;;;;;6099166;23;20394;-73
2024/01/14 05:51:41;;;;;;;14.68;3.30;;;2.60;99.90;;;;;;6075029;23;20056;-73
2024/01/14 05:54:07;;;;;;;14.77;3.05;;;2.60;99.90;;;;;;6098582;23;20094;-73
2024/01/14 05:56:32;;;;;;;12.05;3.03;;;2.50;99.90;;;;;;6075492;23;20506;-73
2024/01/14 05:59:00;;;;;;;16.25;3.00;;;2.50;99.90;;;;;;6075395;23;20096;-73
2024/01/14 06:01:29;;;;;;;13.77;2.58;;;2.60;99.90;;;;;;6075150;23;20014;-73
2024/01/14 06:03:55;;;;;;;13.73;2.78;;;2.50;99.90;;;;;;6073775;23;20022;-73
2024/01/14 06:06:20;;;;;;;16.33;3.88;;;2.60;99.90;;;;;;6074876;23;20017;-73
2024/01/14 06:08:46;;;;;;;13.40;3.03;;;2.60;99.90;;;;;;6099191;23;20133;-73
2024/01/14 06:11:13;;;;;;;13.88;2.65;;;2.60;99.90;;;;;;6075433;23;20010;-73
2024/01/14 06:13:39;;;;;;;15.15;2.50;;;2.60;99.90;;;;;;6098165;23;20018;-73
2024/01/14 06:16:05;;;;;;;19.30;2.75;;;2.60;99.90;;;;;;6075315;23;20048;-73
2024/01/14 06:18:31;;;;;;;13.15;2.55;;;2.60;99.90;;;;;;6074831;23;20443;-73
2024/01/14 06:20:59;;;;;;;12.85;2.22;;;2.70;99.90;;;;;;6075321;23;20088;-73
2024/01/14 06:23:25;;;;;;;11.63;2.10;;;2.70;99.90;;;;;;6074160;23;20014;-73
2024/01/14 06:25:51;;;;;;;14.75;2.40;;;2.70;99.90;;;;;;6088379;23;20021;-73
2024/01/14 06:28:17;;;;;;;11.80;2.00;;;2.70;99.90;;;;;;6098957;23;20010;-73
2024/01/14 06:30:43;;;;;;;10.80;1.83;;;2.70;99.90;;;;;;6099065;23;20461;-73
2024/01/14 06:33:09;;;;;;;10.88;2.50;;;2.80;99.90;;;;;;6098023;23;20048;-73
2024/01/14 06:35:35;;;;;;;11.25;2.28;;;2.80;99.90;;;;;;6122629;23;20342;-73
2024/01/14 06:38:01;;;;;;;15.18;2.35;;;2.80;99.90;;;;;;6123078;23;20077;-73
2024/01/14 06:40:26;;;;;;;10.57;2.13;;;2.80;99.90;;;;;;6098521;23;20035;-73
2024/01/14 06:42:52;;;;;;;11.57;2.10;;;2.80;99.90;;;;;;6098073;23;20018;-73
2024/01/14 06:45:18;;;;;;;15.77;2.97;;;2.80;99.90;;;;;;6098537;23;20013;-73
2024/01/14 06:47:44;;;;;;;13.70;2.40;;;2.80;99.90;;;;;;6098285;23;20014;-73
2024/01/14 06:50:10;;;;;;;13.07;2.40;;;2.80;99.90;;;;;;6098761;23;20339;-73
2024/01/14 06:52:37;;;;;;;11.45;2.47;;;2.80;99.90;;;;;;6098293;23;20014;-73
2024/01/14 06:55:06;;;;;;;12.13;2.78;;;2.80;99.90;;;;;;6098383;23;20045;-73
2024/01/14 06:57:32;;;;;;;12.52;2.30;;;2.90;99.90;;;;;;6098662;23;20010;-73
2024/01/14 07:00:04;;;;;;;14.63;3.13;;;2.90;99.90;;;;;;6098002;23;20014;-73
2024/01/14 07:02:30;;;;;;;12.10;2.70;;;2.90;99.90;;;;;;6098310;23;20057;-73
2024/01/14 07:04:56;;;;;;;12.80;3.03;;;2.90;99.90;;;;;;6098177;23;20029;-73
2024/01/14 07:07:22;;;;;;;16.05;3.03;;;2.90;99.90;;;;;;6098676;23;20009;-73
2024/01/14 07:09:48;;;;;;;18.73;3.08;;;2.90;99.90;;;;;;6098206;23;20014;-73
2024/01/14 07:12:14;;;;;;;18.17;3.05;;;2.90;99.90;;;;;;6098111;23;20070;-73
2024/01/14 07:14:40;;;;;;;16.95;3.00;;;2.90;99.90;;;;;;6098375;23;20010;-73
2024/01/14 07:17:05;;;;;;;16.13;3.20;;;3.00;99.90;;;;;;6098471;23;20089;-73
2024/01/14 07:19:31;;;;;;;15.98;3.55;;;2.90;99.90;;;;;;6122615;23;20065;-73
2024/01/14 07:21:56;;;;;;;15.98;3.80;;;2.90;99.90;;;;;;6098542;23;20018;-73
2024/01/14 07:24:22;;;;;;;19.48;4.38;;;2.90;99.90;;;;;;6097948;23;20014;-73
2024/01/14 07:26:48;;;;;;;16.20;3.95;;;2.90;99.90;;;;;;6074099;23;20022;-73
2024/01/14 07:29:13;;;;;;;14.23;5.13;;;2.80;99.90;;;;;;6098788;23;20016;-73
2024/01/14 07:31:39;;;;;;;21.50;6.18;;;2.80;99.90;;;;;;6074445;23;20397;-73
2024/01/14 07:34:05;;;;;;;20.98;6.93;;;2.90;99.90;;;;;;6074044;23;20069;-73
2024/01/14 07:36:31;;;;;;;23.27;7.60;;;2.90;99.90;;;;;;6073761;23;20006;-73
2024/01/14 07:38:58;;;;;;;21.85;7.35;;;2.90;99.90;;;;;;6074027;23;20227;-73
2024/01/14 07:41:24;;;;;;;25.10;8.48;;;2.90;99.90;;;;;;6074529;23;20021;-73
2024/01/14 07:43:50;;;;;;;28.08;9.15;;;2.90;99.90;;;;;;6098507;23;20175;-73
2024/01/14 07:46:15;;;;;;;19.50;8.32;;;2.80;99.90;;;;;;6098359;23;20017;-73
2024/01/14 07:48:42;;;;;;;21.42;8.82;;;2.80;99.90;;;;;;6074137;23;20088;-73
2024/01/14 07:51:08;;;;;;;24.30;7.93;;;2.80;99.90;;;;;;6074269;23;20025;-73
2024/01/14 07:53:33;;;;;;;20.05;7.70;;;2.80;99.90;;;;;;6074112;23;20409;-74
2024/01/14 07:56:00;;;;;;;21.60;8.75;;;2.80;99.90;;;;;;6096337;23;20021;-73
2024/01/14 07:58:26;;;;;;;27.30;10.35;;;2.80;99.90;;;;;;6073153;23;20014;-74
2024/01/14 08:00:52;;;;;;;25.88;10.40;;;2.80;99.90;;;;;;6073419;23;20010;-74
2024/01/14 08:03:17;;;;;;;25.30;10.48;;;2.80;99.90;;;;;;6073321;23;20010;-74
2024/01/14 08:05:43;;;;;;;25.85;10.80;;;2.90;99.90;;;;;;6073045;23;20021;-72
2024/01/14 08:08:09;;;;;;;22.20;9.90;;;2.80;99.90;;;;;;6098193;23;20395;-73
2024/01/14 08:10:35;;;;;;;22.25;9.85;;;2.80;99.90;;;;;;6073876;23;20076;-77
2024/01/14 08:13:01;;;;;;;28.00;10.43;;;2.80;99.90;;;;;;6072480;23;20315;-74
2024/01/14 08:15:27;;;;;;;24.65;12.52;;;2.80;99.90;;;;;;6073222;23;20017;-74
2024/01/14 08:17:53;;;;;;;34.42;14.23;;;2.80;99.90;;;;;;6073332;23;20060;-74
2024/01/14 08:20:19;;;;;;;32.97;14.23;;;2.90;99.90;;;;;;6074005;23;20105;-74
2024/01/14 08:22:44;;;;;;;32.17;15.05;;;2.90;99.90;;;;;;6098397;23;20020;-74
2024/01/14 08:25:13;;;;;;;30.60;15.07;;;2.90;99.90;;;;;;6079978;23;20093;-73
2024/01/14 08:27:40;;;;;;;36.30;16.23;;;2.90;99.90;;;;;;6100251;23;20026;-73
2024/01/14 08:30:06;;;;;;;36.28;16.23;;;2.90;99.90;;;;;;6124481;23;20061;-73
2024/01/14 08:32:32;;;;;;;38.78;15.55;;;2.90;99.90;;;;;;6124589;23;20057;-74
2024/01/14 08:34:58;;;;;;;30.30;13.45;;;2.90;99.90;;;;;;6099826;23;20014;-74
2024/01/14 08:37:24;;;;;;;30.25;12.80;;;2.90;99.90;;;;;;6100039;23;20014;-73
2024/01/14 08:39:50;;;;;;;38.97;15.85;;;3.00;99.90;;;;;;6100439;23;20005;-74
2024/01/14 08:42:16;;;;;;;32.83;14.05;;;3.00;99.90;;;;;;6100362;23;20025;-74
2024/01/14 08:44:42;;;;;;;35.92;14.50;;;3.00;99.90;;;;;;6100021;23;20014;-74
2024/01/14 08:47:08;;;;;;;30.48;12.82;;;3.00;99.90;;;;;;6099918;23;20350;-74
2024/01/14 08:49:34;;;;;;;28.23;13.20;;;3.10;99.90;;;;;;6099991;23;20402;-73
2024/01/14 08:52:01;;;;;;;26.02;12.40;;;3.10;99.90;;;;;;6100080;23;20018;-73
2024/01/14 08:54:30;;;;;;;29.85;12.43;;;3.10;99.90;;;;;;6099780;23;20010;-73
2024/01/14 08:56:56;;;;;;;32.13;14.55;;;3.10;99.90;;;;;;6100092;23;20021;-74
2024/01/14 08:59:21;;;;;;;51.72;24.73;;;3.20;99.90;;;;;;6099990;23;20013;-73
2024/01/14 09:01:47;;;;;;;49.78;26.80;;;3.20;99.90;;;;;;6124312;23;20020;-75
2024/01/14 09:04:13;;;;;;;76.88;33.05;;;3.30;99.90;;;;;;6099208;23;20411;-74
2024/01/14 09:06:39;;;;;;;86.78;35.55;;;3.20;99.90;;;;;;6124210;23;20447;-75
2024/01/14 09:09:06;;;;;;;68.15;35.28;;;3.20;99.90;;;;;;6124231;23;20096;-73
2024/01/14 09:11:32;;;;;;;77.22;36.72;;;3.20;99.90;;;;;;6099701;23;20089;-74
2024/01/14 09:13:58;;;;;;;113.93;43.30;;;3.20;99.90;;;;;;6123625;23;20049;-75
2024/01/14 09:16:24;;;;;;;116.10;44.42;;;3.20;99.90;;;;;;6099668;23;20017;-73
2024/01/14 09:18:49;;;;;;;116.03;46.33;;;3.20;99.90;;;;;;6099742;23;20093;-73
2024/01/14 09:21:16;;;;;;;144.40;50.50;;;3.20;99.90;;;;;;6123787;23;20021;-73
2024/01/14 09:23:41;;;;;;;133.77;53.03;;;3.20;99.90;;;;;;6123920;23;20021;-74
2024/01/14 09:26:07;;;;;;;117.95;51.97;;;3.20;99.90;;;;;;6099458;23;20010;-74
2024/01/14 09:28:33;;;;;;;144.55;53.80;;;3.20;99.90;;;;;;6099050;23;20320;-74
2024/01/14 09:30:58;;;;;;;115.57;52.25;;;3.20;99.90;;;;;;6099409;23;20044;-75
2024/01/14 09:33:24;;;;;;;173.40;57.47;;;3.20;99.90;;;;;;6096879;23;20324;-74
2024/01/14 09:35:49;;;;;;;168.93;57.80;;;3.20;99.90;;;;;;6098028;23;20323;-74
2024/01/14 09:38:15;;;;;;;174.48;62.10;;;3.20;99.90;;;;;;6099595;23;20010;-74
2024/01/14 09:40:41;;;;;;;195.25;66.45;;;3.20;99.90;;;;;;6098449;23;20137;-74
2024/01/14 09:43:10;;;;;;;206.85;67.18;;;3.20;99.90;;;;;;6097106;23;20068;-74
2024/01/14 09:45:36;;;;;;;194.20;66.85;;;3.30;99.90;;;;;;6099242;23;20010;-74
2024/01/14 09:48:02;;;;;;;176.50;65.35;;;3.30;99.90;;;;;;6122974;23;20413;-74
2024/01/14 09:50:32;;;;;;;188.68;66.60;;;3.30;99.90;;;;;;6098224;23;20052;-74
2024/01/14 09:53:00;;;;;;;182.32;68.90;;;3.30;99.90;;;;;;6097258;23;20367;-74
2024/01/14 09:55:25;;;;;;;184.05;70.93;;;3.30;99.90;;;;;;6098929;23;20060;-72
2024/01/14 09:58:00;;;;;;;137.25;62.33;;;3.30;99.90;;;;;;6122865;23;20096;-76
2024/01/14 10:00:26;;;;;;;198.30;71.28;;;3.30;99.90;;;;;;6097850;23;20512;-74
2024/01/14 10:02:52;;;;;;;144.88;63.25;;;3.30;99.90;;;;;;6098038;23;20093;-74
2024/01/14 10:05:18;;;;;;;130.43;61.10;;;3.30;99.90;;;;;;6098966;23;20013;-74
2024/01/14 10:07:46;;;;;;;179.13;68.15;;;3.40;99.90;;;;;;6099453;23;20053;-74
2024/01/14 10:10:12;;;;;;;138.45;62.95;;;3.40;99.90;;;;;;6098240;23;20024;-74
2024/01/14 10:12:38;;;;;;;187.50;69.05;;;3.40;99.90;;;;;;6098597;23;20366;-75
2024/01/14 10:15:04;;;;;;;111.55;59.45;;;3.40;99.90;;;;;;6099479;23;20014;-76
2024/01/14 10:17:31;;;;;;;167.52;66.35;;;3.40;99.90;;;;;;6099857;23;20064;-77
2024/01/14 10:19:57;;;;;;;165.65;66.22;;;3.50;99.90;;;;;;6099437;23;20050;-74
2024/01/14 10:22:27;;;;;;;180.35;67.28;;;3.60;99.90;;;;;;6099322;23;20096;-75
2024/01/14 10:24:56;;;;;;;151.10;63.83;;;3.60;99.90;;;;;;6099024;23;20017;-74
2024/01/14 10:27:23;;;;;;;127.85;58.65;;;3.70;99.90;;;;;;6124482;23;20025;-74
2024/01/14 10:29:55;;;;;;;111.95;56.38;;;3.70;99.90;;;;;;6098873;23;20018;-76
2024/01/14 10:32:20;;;;;;;137.10;55.95;;;3.70;99.90;;;;;;6098879;23;20014;-73
2024/01/14 10:34:46;;;;;;;111.25;49.47;;;3.60;99.90;;;;;;6122875;23;20006;-74
2024/01/14 10:37:12;;;;;;;115.15;51.72;;;3.60;99.90;;;;;;6098977;23;20316;-74
2024/01/14 10:39:40;;;;;;;104.65;47.80;;;3.60;99.90;;;;;;6098156;23;20068;-74
2024/01/14 10:42:06;;;;;;;144.15;53.10;;;3.60;99.90;;;;;;6098768;23;20123;-74
2024/01/14 10:44:32;;;;;;;149.65;56.35;;;3.50;99.90;;;;;;6098530;23;20013;-74
2024/01/14 10:47:02;;;;;;;115.72;54.40;;;3.50;99.90;;;;;;6098578;23;20081;-74
2024/01/14 10:49:28;;;;;;;110.50;53.25;;;3.60;99.90;;;;;;6122791;23;20024;-74
2024/01/14 10:52:05;;;;;;;136.90;60.38;;;3.60;99.90;;;;;;6098752;23;20018;-74
2024/01/14 10:54:49;;;;;;;145.52;62.03;;;3.60;99.90;;;;;;6098397;23;20462;-74
2024/01/14 10:57:36;;;;;;;133.93;61.15;;;3.60;99.90;;;;;;6098722;23;20017;-74
2024/01/14 11:00:08;;;;;;;130.50;59.08;;;3.60;99.90;;;;;;6098941;23;20097;-74
2024/01/14 11:02:35;;;;;;;146.05;61.72;;;3.50;99.90;;;;;;6099022;23;20021;-74
2024/01/14 11:05:05;;;;;;;131.02;58.80;;;3.50;99.90;;;;;;6098205;23;20390;-74
2024/01/14 11:07:33;;;;;;;207.35;68.72;;;3.50;99.90;;;;;;6098789;23;20378;-74
2024/01/14 11:10:00;;;;;;;211.00;72.68;;;3.60;99.90;;;;;;6098655;23;20029;-74
2024/01/14 11:12:48;;;;;;;156.85;64.68;;;3.70;99.90;;;;;;6098647;23;20158;-74
2024/01/14 11:15:19;;;;;;;171.30;65.97;;;3.80;99.90;;;;;;6098702;23;20089;-74
2024/01/14 11:17:54;;;;;;;149.05;63.00;;;3.70;99.90;;;;;;6098313;23;20046;-75
2024/01/14 11:20:24;;;;;;;119.82;56.75;;;3.70;99.90;;;;;;6098713;23;20018;-75
2024/01/14 11:22:53;;;;;;;153.23;61.40;;;3.50;99.90;;;;;;6098602;23;20021;-75
2024/01/14 11:25:22;;;;;;;155.57;61.78;;;3.60;99.90;;;;;;6098904;23;20053;-74
2024/01/14 11:27:50;;;;;;;192.27;69.10;;;3.50;99.90;;;;;;6098701;23;20111;-74
2024/01/14 11:30:19;;;;;;;194.23;71.13;;;3.50;99.90;;;;;;6098632;23;20018;-74
2024/01/14 11:32:45;;;;;;;210.40;75.90;;;3.50;99.90;;;;;;6098900;23;20018;-73
2024/01/14 11:35:31;;;;;;;144.80;65.80;;;3.50;99.90;;;;;;6098779;23;20343;-73
2024/01/14 11:37:57;;;;;;;206.05;72.68;;;3.60;99.90;;;;;;6098427;23;20010;-74
2024/01/14 11:40:27;;;;;;;173.80;68.93;;;3.60;99.90;;;;;;6098158;23;20068;-73
2024/01/14 11:42:59;;;;;;;155.70;66.18;;;3.60;99.90;;;;;;6098564;23;20014;-73
2024/01/14 11:45:25;;;;;;;;;;;3.60;99.90;;;;;;6123281;23;20014;-73
2024/01/14 11:47:55;;;;;;;178.45;69.78;;;3.60;99.90;;;;;;6098842;23;19960;-74
2024/01/14 11:50:23;;;;;;;158.00;66.90;;;3.60;99.90;;;;;;6122798;23;20111;-73
2024/01/14 11:52:51;;;;;;;224.25;76.03;;;3.50;99.90;;;;;;6122424;23;20093;-73
2024/01/14 11:55:35;;;;;;;192.75;71.50;;;3.50;99.90;;;;;;6098189;23;20014;-73
2024/01/14 11:58:16;;;;;;;196.75;73.85;;;3.50;99.90;;;;;;6098518;23;20060;-73
2024/01/14 12:00:43;;;;;;;139.45;65.38;;;3.50;99.90;;;;;;6099168;23;20088;-74
2024/01/14 12:03:11;;;;;;;158.52;66.03;;;3.60;99.90;;;;;;6124513;23;20024;-74
2024/01/14 12:05:38;;;;;;;135.02;61.60;;;3.60;99.90;;;;;;6100450;23;20009;-73
2024/01/14 12:08:03;;;;;;;144.93;62.80;;;3.70;99.90;;;;;;6100673;23;20185;-75
2024/01/14 12:10:31;;;;;;;156.65;65.60;;;3.70;99.90;;;;;;6100007;23;20024;-74
2024/01/14 12:13:06;;;;;;;156.27;63.90;;;3.70;99.90;;;;;;6099623;23;20025;-74
2024/01/14 12:15:32;;;;;;;111.90;57.60;;;3.80;99.90;;;;;;6124591;23;20010;-74
2024/01/14 12:18:00;;;;;;;149.27;65.25;;;3.80;99.90;;;;;;6100375;23;20057;-74
2024/01/14 12:20:26;;;;;;;124.68;60.80;;;3.80;99.90;;;;;;6124556;23;20017;-74
2024/01/14 12:23:04;;;;;;;133.55;62.63;;;3.90;99.90;;;;;;6099155;23;20060;-74
2024/01/14 12:25:31;;;;;;;166.68;68.25;;;3.90;99.90;;;;;;6099951;23;20014;-74
2024/01/14 12:27:57;;;;;;;193.75;71.68;;;3.90;99.90;;;;;;6100595;23;20518;-74
2024/01/14 12:30:31;;;;;;;127.32;60.47;;;3.90;99.90;;;;;;6124193;23;20359;-75
2024/01/14 12:32:58;;;;;;;168.02;67.40;;;4.00;99.90;;;;;;6099826;23;20439;-75
2024/01/14 12:35:37;;;;;;;102.50;55.92;;;4.00;99.90;;;;;;6099940;23;20006;-75
2024/01/14 12:38:03;;;;;;;129.85;58.90;;;4.10;99.90;;;;;;6124594;23;20049;-76